Pennington, MN (56663)

4:57 AM CST on February 07, 2016 (GMT -0600)
Kitchi Lake North Shore | | Change Station
CLOSE
Current Station
Personal Weather Station
Location: Blackduck, MN
Elevation: 1322 ft
Nearby Weather Stations
Active Advisory: Winter Weather Advisory

Elev 1322 ft 47.51 °N, 94.51 °W | Updated 1 minute ago

Overcast
Overcast
33.4 °F
Feels Like 30 °F
N
3.7
Wind Variable Wind from SSE

Today
High -- | Low -- °F
--% Chance of Precip.
Yesterday
High -- | Low -- °F
Precip. -- in
Pressure 29.43 in
Visibility 3.0 miles
Clouds Overcast 600 ft
Windchill 30 °F
Dew Point 31 °F
Humidity 91%
Rainfall 0.00 in
Snow Depth Not available.
7:36 AM 5:28 PM
Waning Crescent, 2% visible
METAR KBJI 071052Z AUTO 26010KT 3SM BR OVC006 00/00 A2943 RMK AO2 T00030000
Pressure 29.43 in
Visibility 3.0 miles
Clouds Overcast 600 ft
Windchill 30 °F
Dew Point 31 °F
Humidity 91%
Rainfall 0.00 in
Snow Depth Not available.
7:36 AM 5:28 PM
Waning Crescent, 2% visible
METAR KBJI 071052Z AUTO 26010KT 3SM BR OVC006 00/00 A2943 RMK AO2 T00030000

10-Day Weather Forecast

Almanac

Astronomy

Feb. 07, 2016 Rise Set
Actual Time
Civil Twilight
Nautical Twilight
Astronomical Twilight
Moon
Length of Visible Light
Length of Day
Tomorrow will be .
, % of the Moon is Illuminated

Today's Extremes

State Highs State Lows

Community

WunderPhotos

Upload Photos

1,891,171 photos uploaded!

WunderBlog® & News

Nearby

Air Quality

  Air Quality AQ Index Pollutant
Not available.

Snow Depth

Station Depth Elevation

Earthquake Activity

City Distance Mag. Time & Date
Minimum magnitude displayed is 2.5.

Coastal Water Temperatures

Place Temperature

Stations

Nearby Weather Stations

Station Location Temp. Windchill Dew Point Humidity Wind Precip. Elev Updated Type
                   

Watches & Warnings

Winter Weather Advisory
Issued: 4:22 AM CST Feb. 7, 2016 – National Weather Service

... Winter Weather Advisory remains in effect from 9 am this
morning to 6 am CST Monday...

* timing... expect snow to develop around 9 am Sunday and then
diminish around 6 am Monday.

* Precipitation rates... the heaviest snowfall rates will occur
between noon and 6 PM Sunday.

* Snow accumulations... 1 to 3 inches.

* Winds / visibilities... winds gusting as high as 45 mph will
cause areas of blowing and drifting snow. Tree branches could
fall as well.

* Impacts... plan on slippery Road conditions.

Precautionary/preparedness actions...

A Winter Weather Advisory for snow means periods of snow will
cause primarily travel difficulties. Be prepared for snow covered
roads and limited visibilities... and use caution while driving.
The latest Road conditions for the state you are calling from can
be obtained by calling 5 1 1.